CYAW/YAW METAR and TAF weather

Enter ICAO airport designator
Station Type Date Time Source
CYAW METAR 2018/07/20 19:33 UTC NOAA

CYAW 201933Z 15005KT 15SM FEW040 BKN250 22/16 A3023 RMK CU1CI6 DA814FT LAST OBS/NXT 230800 UTC SLP239


Station Type Date Time Source
CYAW Decoded METAR 2018/07/20 19:33 UTC NOAA

Shearwater, N. S., Canada (CYAW) 44-38N 063-30W 51M
Jul 20, 2018 - 03:33 PM EDT / 2018.07.20 1933 UTC
Wind: from the SSE (150 degrees) at 6 MPH (5 KT):0
Visibility: 15 mile(s):0
Sky conditions: mostly cloudy
Temperature: 71 F (22 C)
Dew Point: 60 F (16 C)
Relative Humidity: 68%
Pressure (altimeter): 30.23 in. Hg (1023 hPa)
ob: CYAW 201933Z 15005KT 15SM FEW040 BKN250 22/16 A3023 RMK CU1CI6 DA814FT LAST OBS/NXT 230800 UTC SLP239
cycle: 19

Station Type Date Time Source
CYAW TAF 2018/07/20 18:40 UTC NOAA

TAF
AMD CYAW 201937Z 2018/2106 FCST CNCLD DUE END OF FLYING PROGRAM
RMK NXT FCST WILL BE ISSUED AT 230915Z


Example: see airport list